sensor_id;sensor_type;location;lat;lon;timestamp;P1;durP1;ratioP1;P2;durP2;ratioP2
60917;SDS011;46792;38.854;-9.384;2023-05-03T00:03:00;6.10;;;2.60;;
60917;SDS011;46792;38.854;-9.384;2023-05-03T00:05:05;10.02;;;3.45;;
60917;SDS011;46792;38.854;-9.384;2023-05-03T00:07:11;6.38;;;2.92;;
60917;SDS011;46792;38.854;-9.384;2023-05-03T00:09:12;5.72;;;2.70;;
60917;SDS011;46792;38.854;-9.384;2023-05-03T00:11:13;9.40;;;3.13;;
60917;SDS011;46792;38.854;-9.384;2023-05-03T00:13:14;9.00;;;3.03;;
60917;SDS011;46792;38.854;-9.384;2023-05-03T00:15:14;7.55;;;3.40;;
60917;SDS011;46792;38.854;-9.384;2023-05-03T00:17:15;13.70;;;3.30;;
60917;SDS011;46792;38.854;-9.384;2023-05-03T00:19:15;7.75;;;3.38;;
60917;SDS011;46792;38.854;-9.384;2023-05-03T00:21:16;7.82;;;3.20;;
60917;SDS011;46792;38.854;-9.384;2023-05-03T00:23:17;4.75;;;3.00;;
60917;SDS011;46792;38.854;-9.384;2023-05-03T00:27:56;7.15;;;3.33;;
60917;SDS011;46792;38.854;-9.384;2023-05-03T00:29:56;5.40;;;3.72;;
60917;SDS011;46792;38.854;-9.384;2023-05-03T00:31:57;7.28;;;2.83;;
60917;SDS011;46792;38.854;-9.384;2023-05-03T00:33:59;7.85;;;2.78;;
60917;SDS011;46792;38.854;-9.384;2023-05-03T00:36:18;4.95;;;2.58;;
60917;SDS011;46792;38.854;-9.384;2023-05-03T00:38:18;7.40;;;2.85;;
60917;SDS011;46792;38.854;-9.384;2023-05-03T00:40:19;9.13;;;3.03;;
60917;SDS011;46792;38.854;-9.384;2023-05-03T00:42:20;9.55;;;2.92;;
60917;SDS011;46792;38.854;-9.384;2023-05-03T00:44:39;3.22;;;2.08;;
60917;SDS011;46792;38.854;-9.384;2023-05-03T00:46:39;10.60;;;2.90;;
60917;SDS011;46792;38.854;-9.384;2023-05-03T00:48:40;6.40;;;2.80;;
60917;SDS011;46792;38.854;-9.384;2023-05-03T00:50:41;6.88;;;2.53;;
60917;SDS011;46792;38.854;-9.384;2023-05-03T00:52:42;5.22;;;2.22;;
60917;SDS011;46792;38.854;-9.384;2023-05-03T00:54:44;6.75;;;2.83;;
60917;SDS011;46792;38.854;-9.384;2023-05-03T00:56:45;5.63;;;2.83;;
60917;SDS011;46792;38.854;-9.384;2023-05-03T00:58:46;5.75;;;2.47;;
60917;SDS011;46792;38.854;-9.384;2023-05-03T01:00:46;7.50;;;3.03;;
60917;SDS011;46792;38.854;-9.384;2023-05-03T01:02:48;8.40;;;3.00;;
60917;SDS011;46792;38.854;-9.384;2023-05-03T01:04:48;10.88;;;3.40;;
60917;SDS011;46792;38.854;-9.384;2023-05-03T01:11:01;7.37;;;2.70;;
60917;SDS011;46792;38.854;-9.384;2023-05-03T01:13:13;13.50;;;3.28;;
60917;SDS011;46792;38.854;-9.384;2023-05-03T01:15:26;7.90;;;3.05;;
60917;SDS011;46792;38.854;-9.384;2023-05-03T01:17:45;8.52;;;3.90;;
60917;SDS011;46792;38.854;-9.384;2023-05-03T01:19:50;11.55;;;3.40;;
60917;SDS011;46792;38.854;-9.384;2023-05-03T01:24:21;4.75;;;2.42;;
60917;SDS011;46792;38.854;-9.384;2023-05-03T01:28:42;7.10;;;3.35;;
60917;SDS011;46792;38.854;-9.384;2023-05-03T01:30:43;8.50;;;3.38;;
60917;SDS011;46792;38.854;-9.384;2023-05-03T01:35:03;10.07;;;3.42;;
60917;SDS011;46792;38.854;-9.384;2023-05-03T01:37:17;6.43;;;3.25;;
60917;SDS011;46792;38.854;-9.384;2023-05-03T01:39:21;7.78;;;3.35;;
60917;SDS011;46792;38.854;-9.384;2023-05-03T01:41:25;6.90;;;3.10;;
60917;SDS011;46792;38.854;-9.384;2023-05-03T01:43:27;10.75;;;3.28;;
60917;SDS011;46792;38.854;-9.384;2023-05-03T01:45:30;8.15;;;2.72;;
60917;SDS011;46792;38.854;-9.384;2023-05-03T01:47:31;8.30;;;3.25;;
60917;SDS011;46792;38.854;-9.384;2023-05-03T01:49:32;5.15;;;2.80;;
60917;SDS011;46792;38.854;-9.384;2023-05-03T01:51:34;6.63;;;2.13;;
60917;SDS011;46792;38.854;-9.384;2023-05-03T01:53:35;4.13;;;2.25;;
60917;SDS011;46792;38.854;-9.384;2023-05-03T01:55:36;10.38;;;2.35;;
60917;SDS011;46792;38.854;-9.384;2023-05-03T01:57:37;5.75;;;2.22;;
60917;SDS011;46792;38.854;-9.384;2023-05-03T01:59:38;3.63;;;2.35;;
60917;SDS011;46792;38.854;-9.384;2023-05-03T02:01:41;5.05;;;2.65;;
60917;SDS011;46792;38.854;-9.384;2023-05-03T02:03:42;4.07;;;2.28;;
60917;SDS011;46792;38.854;-9.384;2023-05-03T02:05:43;4.63;;;2.30;;
60917;SDS011;46792;38.854;-9.384;2023-05-03T02:07:43;5.18;;;1.90;;
60917;SDS011;46792;38.854;-9.384;2023-05-03T02:09:44;4.47;;;2.05;;
60917;SDS011;46792;38.854;-9.384;2023-05-03T02:11:45;5.57;;;2.55;;
60917;SDS011;46792;38.854;-9.384;2023-05-03T02:13:47;6.38;;;2.25;;
60917;SDS011;46792;38.854;-9.384;2023-05-03T02:15:49;11.43;;;2.13;;
60917;SDS011;46792;38.854;-9.384;2023-05-03T02:17:50;8.20;;;2.25;;
60917;SDS011;46792;38.854;-9.384;2023-05-03T02:19:53;3.15;;;2.25;;
60917;SDS011;46792;38.854;-9.384;2023-05-03T02:21:53;6.43;;;2.28;;
60917;SDS011;46792;38.854;-9.384;2023-05-03T02:23:57;1.88;;;1.77;;
60917;SDS011;46792;38.854;-9.384;2023-05-03T02:25:58;4.07;;;2.00;;
60917;SDS011;46792;38.854;-9.384;2023-05-03T02:27:59;4.85;;;2.75;;
60917;SDS011;46792;38.854;-9.384;2023-05-03T02:30:00;6.05;;;2.90;;
60917;SDS011;46792;38.854;-9.384;2023-05-03T02:32:01;11.93;;;2.88;;
60917;SDS011;46792;38.854;-9.384;2023-05-03T02:34:05;5.55;;;2.75;;
60917;SDS011;46792;38.854;-9.384;2023-05-03T02:36:06;4.93;;;2.20;;
60917;SDS011;46792;38.854;-9.384;2023-05-03T02:38:06;8.20;;;2.72;;
60917;SDS011;46792;38.854;-9.384;2023-05-03T02:40:07;5.93;;;3.13;;
60917;SDS011;46792;38.854;-9.384;2023-05-03T02:42:11;9.48;;;2.22;;
60917;SDS011;46792;38.854;-9.384;2023-05-03T02:44:12;7.28;;;2.40;;
60917;SDS011;46792;38.854;-9.384;2023-05-03T02:46:12;3.15;;;2.55;;
60917;SDS011;46792;38.854;-9.384;2023-05-03T02:48:13;8.77;;;2.80;;
60917;SDS011;46792;38.854;-9.384;2023-05-03T02:50:15;6.32;;;2.38;;
60917;SDS011;46792;38.854;-9.384;2023-05-03T02:52:16;7.15;;;2.83;;
60917;SDS011;46792;38.854;-9.384;2023-05-03T02:54:17;4.63;;;2.70;;
60917;SDS011;46792;38.854;-9.384;2023-05-03T02:56:19;5.78;;;2.72;;
60917;SDS011;46792;38.854;-9.384;2023-05-03T02:58:20;3.67;;;2.42;;
60917;SDS011;46792;38.854;-9.384;2023-05-03T03:00:20;6.15;;;2.90;;
60917;SDS011;46792;38.854;-9.384;2023-05-03T03:02:21;8.40;;;2.88;;
60917;SDS011;46792;38.854;-9.384;2023-05-03T03:04:22;3.83;;;2.53;;
60917;SDS011;46792;38.854;-9.384;2023-05-03T03:06:23;5.15;;;2.72;;
60917;SDS011;46792;38.854;-9.384;2023-05-03T03:08:23;7.18;;;2.80;;
60917;SDS011;46792;38.854;-9.384;2023-05-03T03:10:25;10.50;;;2.97;;
60917;SDS011;46792;38.854;-9.384;2023-05-03T03:12:26;10.02;;;3.20;;
60917;SDS011;46792;38.854;-9.384;2023-05-03T03:14:29;5.63;;;3.38;;
60917;SDS011;46792;38.854;-9.384;2023-05-03T03:16:29;12.13;;;2.40;;
60917;SDS011;46792;38.854;-9.384;2023-05-03T03:18:30;4.32;;;2.33;;
60917;SDS011;46792;38.854;-9.384;2023-05-03T03:20:31;3.90;;;2.20;;
60917;SDS011;46792;38.854;-9.384;2023-05-03T03:22:34;4.40;;;2.30;;
60917;SDS011;46792;38.854;-9.384;2023-05-03T03:24:35;3.28;;;2.47;;
60917;SDS011;46792;38.854;-9.384;2023-05-03T03:26:37;5.88;;;2.78;;
60917;SDS011;46792;38.854;-9.384;2023-05-03T03:28:38;8.88;;;2.67;;
60917;SDS011;46792;38.854;-9.384;2023-05-03T03:30:43;4.80;;;2.75;;
60917;SDS011;46792;38.854;-9.384;2023-05-03T03:32:52;5.38;;;2.47;;
60917;SDS011;46792;38.854;-9.384;2023-05-03T03:35:04;5.22;;;2.53;;
60917;SDS011;46792;38.854;-9.384;2023-05-03T03:37:06;6.10;;;2.55;;
60917;SDS011;46792;38.854;-9.384;2023-05-03T03:39:08;6.10;;;2.78;;
60917;SDS011;46792;38.854;-9.384;2023-05-03T03:41:10;6.38;;;2.95;;
60917;SDS011;46792;38.854;-9.384;2023-05-03T03:43:11;6.38;;;2.58;;
60917;SDS011;46792;38.854;-9.384;2023-05-03T03:47:51;7.20;;;3.20;;
60917;SDS011;46792;38.854;-9.384;2023-05-03T03:49:53;6.35;;;3.65;;
60917;SDS011;46792;38.854;-9.384;2023-05-03T03:51:54;10.32;;;3.42;;
60917;SDS011;46792;38.854;-9.384;2023-05-03T03:53:55;9.75;;;4.00;;
60917;SDS011;46792;38.854;-9.384;2023-05-03T03:55:58;7.00;;;3.77;;
60917;SDS011;46792;38.854;-9.384;2023-05-03T03:57:59;7.00;;;4.00;;
60917;SDS011;46792;38.854;-9.384;2023-05-03T04:00:01;11.13;;;4.25;;
60917;SDS011;46792;38.854;-9.384;2023-05-03T04:02:12;7.03;;;4.63;;
60917;SDS011;46792;38.854;-9.384;2023-05-03T04:04:13;13.07;;;5.22;;
60917;SDS011;46792;38.854;-9.384;2023-05-03T04:06:14;13.43;;;6.25;;
60917;SDS011;46792;38.854;-9.384;2023-05-03T04:08:14;10.38;;;6.97;;
60917;SDS011;46792;38.854;-9.384;2023-05-03T04:10:15;13.50;;;8.75;;
60917;SDS011;46792;38.854;-9.384;2023-05-03T04:12:17;24.02;;;9.85;;
60917;SDS011;46792;38.854;-9.384;2023-05-03T04:14:19;16.17;;;10.05;;
60917;SDS011;46792;38.854;-9.384;2023-05-03T04:16:20;19.92;;;10.82;;
60917;SDS011;46792;38.854;-9.384;2023-05-03T04:18:21;18.40;;;9.25;;
60917;SDS011;46792;38.854;-9.384;2023-05-03T04:20:22;14.65;;;9.00;;
60917;SDS011;46792;38.854;-9.384;2023-05-03T04:22:25;12.02;;;9.07;;
60917;SDS011;46792;38.854;-9.384;2023-05-03T04:24:25;12.35;;;9.48;;
60917;SDS011;46792;38.854;-9.384;2023-05-03T04:26:30;14.38;;;8.13;;
60917;SDS011;46792;38.854;-9.384;2023-05-03T04:28:36;14.70;;;8.50;;
60917;SDS011;46792;38.854;-9.384;2023-05-03T04:30:54;15.25;;;8.18;;
60917;SDS011;46792;38.854;-9.384;2023-05-03T04:32:59;17.02;;;8.35;;
60917;SDS011;46792;38.854;-9.384;2023-05-03T04:35:07;15.68;;;8.57;;
60917;SDS011;46792;38.854;-9.384;2023-05-03T04:37:10;17.58;;;9.15;;
60917;SDS011;46792;38.854;-9.384;2023-05-03T04:39:13;20.80;;;9.73;;
60917;SDS011;46792;38.854;-9.384;2023-05-03T04:41:16;16.00;;;9.13;;
60917;SDS011;46792;38.854;-9.384;2023-05-03T04:43:20;16.58;;;10.70;;
60917;SDS011;46792;38.854;-9.384;2023-05-03T04:45:22;19.90;;;11.57;;
60917;SDS011;46792;38.854;-9.384;2023-05-03T04:47:23;17.77;;;10.65;;
60917;SDS011;46792;38.854;-9.384;2023-05-03T04:49:25;21.33;;;11.40;;
60917;SDS011;46792;38.854;-9.384;2023-05-03T04:51:44;17.60;;;11.15;;
60917;SDS011;46792;38.854;-9.384;2023-05-03T04:54:04;19.58;;;10.88;;
60917;SDS011;46792;38.854;-9.384;2023-05-03T04:56:24;19.25;;;10.68;;
60917;SDS011;46792;38.854;-9.384;2023-05-03T04:58:44;21.85;;;10.93;;
60917;SDS011;46792;38.854;-9.384;2023-05-03T05:00:47;12.80;;;10.33;;
60917;SDS011;46792;38.854;-9.384;2023-05-03T05:02:56;15.80;;;10.25;;
60917;SDS011;46792;38.854;-9.384;2023-05-03T05:05:00;16.40;;;10.48;;
60917;SDS011;46792;38.854;-9.384;2023-05-03T05:07:01;21.92;;;11.30;;
60917;SDS011;46792;38.854;-9.384;2023-05-03T05:09:17;25.40;;;10.82;;
60917;SDS011;46792;38.854;-9.384;2023-05-03T05:11:21;20.05;;;12.15;;
60917;SDS011;46792;38.854;-9.384;2023-05-03T05:13:23;23.50;;;11.40;;
60917;SDS011;46792;38.854;-9.384;2023-05-03T05:15:42;21.98;;;12.10;;
60917;SDS011;46792;38.854;-9.384;2023-05-03T05:17:45;22.88;;;12.00;;
60917;SDS011;46792;38.854;-9.384;2023-05-03T05:19:46;23.92;;;12.68;;
60917;SDS011;46792;38.854;-9.384;2023-05-03T05:21:46;25.33;;;13.60;;
60917;SDS011;46792;38.854;-9.384;2023-05-03T05:23:49;30.45;;;12.90;;
60917;SDS011;46792;38.854;-9.384;2023-05-03T05:25:49;29.40;;;15.57;;
60917;SDS011;46792;38.854;-9.384;2023-05-03T05:27:51;24.58;;;13.05;;
60917;SDS011;46792;38.854;-9.384;2023-05-03T05:29:52;33.78;;;12.95;;
60917;SDS011;46792;38.854;-9.384;2023-05-03T05:31:53;30.48;;;12.57;;
60917;SDS011;46792;38.854;-9.384;2023-05-03T05:33:54;33.60;;;12.82;;
60917;SDS011;46792;38.854;-9.384;2023-05-03T05:35:56;23.63;;;12.70;;
60917;SDS011;46792;38.854;-9.384;2023-05-03T05:37:56;29.90;;;12.32;;
60917;SDS011;46792;38.854;-9.384;2023-05-03T05:39:57;24.55;;;13.13;;
60917;SDS011;46792;38.854;-9.384;2023-05-03T05:42:01;21.23;;;12.05;;
60917;SDS011;46792;38.854;-9.384;2023-05-03T05:44:23;34.10;;;13.75;;
60917;SDS011;46792;38.854;-9.384;2023-05-03T05:46:42;31.92;;;14.70;;
60917;SDS011;46792;38.854;-9.384;2023-05-03T05:48:43;21.40;;;12.45;;
60917;SDS011;46792;38.854;-9.384;2023-05-03T05:50:44;24.45;;;12.05;;
60917;SDS011;46792;38.854;-9.384;2023-05-03T05:52:49;29.23;;;12.32;;
60917;SDS011;46792;38.854;-9.384;2023-05-03T05:54:52;28.85;;;11.60;;
60917;SDS011;46792;38.854;-9.384;2023-05-03T05:59:31;23.30;;;11.38;;
60917;SDS011;46792;38.854;-9.384;2023-05-03T06:01:50;17.55;;;9.68;;
60917;SDS011;46792;38.854;-9.384;2023-05-03T06:03:54;20.55;;;7.90;;
60917;SDS011;46792;38.854;-9.384;2023-05-03T06:05:56;15.48;;;8.27;;
60917;SDS011;46792;38.854;-9.384;2023-05-03T06:07:57;21.85;;;9.02;;
60917;SDS011;46792;38.854;-9.384;2023-05-03T06:09:57;13.68;;;7.88;;
60917;SDS011;46792;38.854;-9.384;2023-05-03T06:11:58;17.23;;;9.77;;
60917;SDS011;46792;38.854;-9.384;2023-05-03T06:14:01;21.75;;;10.95;;
60917;SDS011;46792;38.854;-9.384;2023-05-03T06:16:10;21.13;;;12.23;;
60917;SDS011;46792;38.854;-9.384;2023-05-03T06:18:10;22.98;;;13.48;;
60917;SDS011;46792;38.854;-9.384;2023-05-03T06:20:11;24.05;;;12.73;;
60917;SDS011;46792;38.854;-9.384;2023-05-03T06:24:33;27.63;;;13.80;;
60917;SDS011;46792;38.854;-9.384;2023-05-03T06:26:33;30.83;;;13.10;;
60917;SDS011;46792;38.854;-9.384;2023-05-03T06:28:35;32.03;;;15.63;;
60917;SDS011;46792;38.854;-9.384;2023-05-03T06:30:35;28.52;;;14.25;;
60917;SDS011;46792;38.854;-9.384;2023-05-03T06:32:46;34.00;;;17.58;;
60917;SDS011;46792;38.854;-9.384;2023-05-03T06:34:47;30.00;;;14.63;;
60917;SDS011;46792;38.854;-9.384;2023-05-03T06:36:49;31.92;;;13.93;;
60917;SDS011;46792;38.854;-9.384;2023-05-03T06:38:49;26.85;;;14.18;;
60917;SDS011;46792;38.854;-9.384;2023-05-03T06:40:50;33.35;;;13.40;;
60917;SDS011;46792;38.854;-9.384;2023-05-03T06:42:50;28.75;;;13.43;;
60917;SDS011;46792;38.854;-9.384;2023-05-03T06:45:05;35.45;;;15.27;;
60917;SDS011;46792;38.854;-9.384;2023-05-03T06:47:07;26.30;;;12.68;;
60917;SDS011;46792;38.854;-9.384;2023-05-03T06:49:07;27.02;;;13.50;;
60917;SDS011;46792;38.854;-9.384;2023-05-03T06:51:08;31.80;;;13.30;;
60917;SDS011;46792;38.854;-9.384;2023-05-03T06:53:09;33.15;;;12.43;;
60917;SDS011;46792;38.854;-9.384;2023-05-03T06:55:10;23.45;;;10.07;;
60917;SDS011;46792;38.854;-9.384;2023-05-03T06:59:48;35.13;;;12.52;;
60917;SDS011;46792;38.854;-9.384;2023-05-03T07:01:48;24.98;;;12.15;;
60917;SDS011;46792;38.854;-9.384;2023-05-03T07:04:09;14.23;;;9.70;;
60917;SDS011;46792;38.854;-9.384;2023-05-03T07:06:28;21.42;;;8.88;;
60917;SDS011;46792;38.854;-9.384;2023-05-03T07:08:30;15.18;;;7.13;;
60917;SDS011;46792;38.854;-9.384;2023-05-03T07:10:31;29.80;;;8.05;;
60917;SDS011;46792;38.854;-9.384;2023-05-03T07:12:33;7.45;;;3.42;;
60917;SDS011;46792;38.854;-9.384;2023-05-03T07:14:34;7.72;;;3.17;;
60917;SDS011;46792;38.854;-9.384;2023-05-03T07:16:34;8.32;;;2.33;;
60917;SDS011;46792;38.854;-9.384;2023-05-03T07:18:35;12.68;;;4.07;;
60917;SDS011;46792;38.854;-9.384;2023-05-03T07:20:36;9.02;;;2.95;;
60917;SDS011;46792;38.854;-9.384;2023-05-03T07:22:55;14.63;;;4.53;;
60917;SDS011;46792;38.854;-9.384;2023-05-03T07:25:15;15.05;;;5.25;;
60917;SDS011;46792;38.854;-9.384;2023-05-03T07:27:16;11.45;;;3.05;;
60917;SDS011;46792;38.854;-9.384;2023-05-03T07:29:17;5.50;;;2.65;;
60917;SDS011;46792;38.854;-9.384;2023-05-03T07:31:18;6.97;;;2.25;;
60917;SDS011;46792;38.854;-9.384;2023-05-03T07:33:22;8.88;;;2.13;;
60917;SDS011;46792;38.854;-9.384;2023-05-03T07:35:23;7.65;;;1.92;;
60917;SDS011;46792;38.854;-9.384;2023-05-03T07:37:25;1.95;;;1.63;;
60917;SDS011;46792;38.854;-9.384;2023-05-03T07:39:28;11.00;;;1.90;;
60917;SDS011;46792;38.854;-9.384;2023-05-03T07:41:32;3.95;;;2.53;;
60917;SDS011;46792;38.854;-9.384;2023-05-03T07:43:32;4.10;;;1.90;;
60917;SDS011;46792;38.854;-9.384;2023-05-03T07:45:35;8.55;;;1.75;;
60917;SDS011;46792;38.854;-9.384;2023-05-03T07:47:37;6.03;;;2.05;;
60917;SDS011;46792;38.854;-9.384;2023-05-03T07:49:39;4.50;;;1.55;;
60917;SDS011;46792;38.854;-9.384;2023-05-03T07:51:39;12.30;;;1.90;;
60917;SDS011;46792;38.854;-9.384;2023-05-03T07:53:40;2.10;;;1.40;;
60917;SDS011;46792;38.854;-9.384;2023-05-03T07:55:53;2.15;;;1.40;;
60917;SDS011;46792;38.854;-9.384;2023-05-03T07:57:54;5.63;;;1.50;;
60917;SDS011;46792;38.854;-9.384;2023-05-03T07:59:58;3.03;;;1.30;;
60917;SDS011;46792;38.854;-9.384;2023-05-03T08:02:17;4.38;;;2.25;;
60917;SDS011;46792;38.854;-9.384;2023-05-03T08:04:18;2.88;;;1.60;;
60917;SDS011;46792;38.854;-9.384;2023-05-03T08:06:19;2.20;;;1.60;;
60917;SDS011;46792;38.854;-9.384;2023-05-03T08:08:19;5.18;;;1.58;;
60917;SDS011;46792;38.854;-9.384;2023-05-03T08:10:38;4.80;;;1.63;;
60917;SDS011;46792;38.854;-9.384;2023-05-03T08:12:58;2.92;;;1.35;;
60917;SDS011;46792;38.854;-9.384;2023-05-03T08:14:58;1.75;;;1.23;;
60917;SDS011;46792;38.854;-9.384;2023-05-03T08:16:59;3.67;;;1.40;;
60917;SDS011;46792;38.854;-9.384;2023-05-03T08:19:00;4.65;;;1.05;;
60917;SDS011;46792;38.854;-9.384;2023-05-03T08:21:00;3.35;;;1.13;;
60917;SDS011;46792;38.854;-9.384;2023-05-03T08:23:06;1.98;;;1.02;;
60917;SDS011;46792;38.854;-9.384;2023-05-03T08:25:08;1.20;;;1.02;;
60917;SDS011;46792;38.854;-9.384;2023-05-03T08:27:09;7.70;;;1.42;;
60917;SDS011;46792;38.854;-9.384;2023-05-03T08:29:09;1.42;;;1.17;;
60917;SDS011;46792;38.854;-9.384;2023-05-03T08:31:10;3.70;;;1.15;;
60917;SDS011;46792;38.854;-9.384;2023-05-03T08:33:11;6.82;;;1.10;;
60917;SDS011;46792;38.854;-9.384;2023-05-03T08:35:11;1.23;;;1.13;;
60917;SDS011;46792;38.854;-9.384;2023-05-03T08:37:14;1.35;;;1.08;;
60917;SDS011;46792;38.854;-9.384;2023-05-03T08:39:14;2.67;;;1.55;;
60917;SDS011;46792;38.854;-9.384;2023-05-03T08:41:26;2.95;;;1.17;;
60917;SDS011;46792;38.854;-9.384;2023-05-03T08:43:28;2.75;;;1.20;;
60917;SDS011;46792;38.854;-9.384;2023-05-03T08:45:32;3.03;;;1.20;;
60917;SDS011;46792;38.854;-9.384;2023-05-03T08:47:32;3.10;;;1.10;;
60917;SDS011;46792;38.854;-9.384;2023-05-03T08:49:36;5.57;;;1.63;;
60917;SDS011;46792;38.854;-9.384;2023-05-03T08:51:39;6.20;;;1.23;;
60917;SDS011;46792;38.854;-9.384;2023-05-03T08:53:46;3.67;;;1.33;;
60917;SDS011;46792;38.854;-9.384;2023-05-03T08:55:47;7.38;;;1.33;;
60917;SDS011;46792;38.854;-9.384;2023-05-03T08:57:48;1.13;;;0.95;;
60917;SDS011;46792;38.854;-9.384;2023-05-03T08:59:49;3.70;;;1.30;;
60917;SDS011;46792;38.854;-9.384;2023-05-03T09:01:50;3.83;;;1.63;;
60917;SDS011;46792;38.854;-9.384;2023-05-03T09:03:51;4.53;;;1.50;;
60917;SDS011;46792;38.854;-9.384;2023-05-03T09:05:51;0.80;;;0.77;;
60917;SDS011;46792;38.854;-9.384;2023-05-03T09:08:02;2.95;;;1.20;;
60917;SDS011;46792;38.854;-9.384;2023-05-03T09:10:17;7.20;;;1.50;;
60917;SDS011;46792;38.854;-9.384;2023-05-03T09:12:35;8.20;;;1.52;;
60917;SDS011;46792;38.854;-9.384;2023-05-03T09:14:45;11.85;;;1.40;;
60917;SDS011;46792;38.854;-9.384;2023-05-03T09:16:46;1.35;;;1.17;;
60917;SDS011;46792;38.854;-9.384;2023-05-03T09:19:00;7.20;;;1.65;;
60917;SDS011;46792;38.854;-9.384;2023-05-03T09:21:10;3.75;;;1.40;;
60917;SDS011;46792;38.854;-9.384;2023-05-03T09:25:42;8.98;;;1.92;;
60917;SDS011;46792;38.854;-9.384;2023-05-03T09:28:10;4.18;;;2.08;;
60917;SDS011;46792;38.854;-9.384;2023-05-03T09:30:17;4.30;;;1.10;;
60917;SDS011;46792;38.854;-9.384;2023-05-03T09:32:19;1.75;;;1.00;;
60917;SDS011;46792;38.854;-9.384;2023-05-03T09:34:22;1.45;;;0.85;;
60917;SDS011;46792;38.854;-9.384;2023-05-03T09:36:23;6.10;;;1.48;;
60917;SDS011;46792;38.854;-9.384;2023-05-03T09:38:31;3.25;;;1.55;;
60917;SDS011;46792;38.854;-9.384;2023-05-03T09:40:33;2.42;;;1.10;;
60917;SDS011;46792;38.854;-9.384;2023-05-03T09:42:33;2.10;;;0.80;;
60917;SDS011;46792;38.854;-9.384;2023-05-03T09:44:47;13.15;;;1.60;;
60917;SDS011;46792;38.854;-9.384;2023-05-03T09:47:05;9.00;;;1.30;;
60917;SDS011;46792;38.854;-9.384;2023-05-03T09:49:05;4.63;;;1.80;;
60917;SDS011;46792;38.854;-9.384;2023-05-03T09:51:07;5.13;;;1.35;;
60917;SDS011;46792;38.854;-9.384;2023-05-03T09:53:08;7.20;;;2.50;;
60917;SDS011;46792;38.854;-9.384;2023-05-03T09:55:09;2.60;;;1.50;;
60917;SDS011;46792;38.854;-9.384;2023-05-03T09:57:09;8.38;;;1.02;;
60917;SDS011;46792;38.854;-9.384;2023-05-03T09:59:13;4.28;;;1.48;;
60917;SDS011;46792;38.854;-9.384;2023-05-03T10:01:14;3.85;;;1.13;;
60917;SDS011;46792;38.854;-9.384;2023-05-03T10:03:17;2.67;;;1.00;;
60917;SDS011;46792;38.854;-9.384;2023-05-03T10:05:27;2.80;;;1.20;;
60917;SDS011;46792;38.854;-9.384;2023-05-03T10:07:32;5.45;;;1.73;;
60917;SDS011;46792;38.854;-9.384;2023-05-03T10:09:43;3.78;;;1.50;;
60917;SDS011;46792;38.854;-9.384;2023-05-03T10:11:50;7.38;;;1.67;;
60917;SDS011;46792;38.854;-9.384;2023-05-03T10:13:53;2.30;;;1.77;;
60917;SDS011;46792;38.854;-9.384;2023-05-03T10:15:56;6.85;;;1.40;;
60917;SDS011;46792;38.854;-9.384;2023-05-03T10:18:09;1.77;;;1.40;;
60917;SDS011;46792;38.854;-9.384;2023-05-03T10:20:19;3.53;;;1.40;;
60917;SDS011;46792;38.854;-9.384;2023-05-03T10:24:27;3.95;;;1.30;;
60917;SDS011;46792;38.854;-9.384;2023-05-03T10:26:28;3.38;;;1.27;;
60917;SDS011;46792;38.854;-9.384;2023-05-03T10:28:29;3.92;;;1.33;;
60917;SDS011;46792;38.854;-9.384;2023-05-03T10:30:32;2.03;;;1.17;;
60917;SDS011;46792;38.854;-9.384;2023-05-03T10:32:37;6.30;;;1.60;;
60917;SDS011;46792;38.854;-9.384;2023-05-03T10:34:42;10.05;;;1.50;;
60917;SDS011;46792;38.854;-9.384;2023-05-03T10:36:42;5.07;;;1.40;;
60917;SDS011;46792;38.854;-9.384;2023-05-03T10:38:44;4.30;;;1.08;;
60917;SDS011;46792;38.854;-9.384;2023-05-03T10:40:45;3.30;;;1.10;;
60917;SDS011;46792;38.854;-9.384;2023-05-03T10:43:03;0.85;;;0.85;;
60917;SDS011;46792;38.854;-9.384;2023-05-03T10:45:08;1.25;;;1.00;;
60917;SDS011;46792;38.854;-9.384;2023-05-03T10:47:22;4.43;;;1.15;;
60917;SDS011;46792;38.854;-9.384;2023-05-03T10:49:23;3.25;;;1.35;;
60917;SDS011;46792;38.854;-9.384;2023-05-03T10:55:36;4.70;;;0.93;;
60917;SDS011;46792;38.854;-9.384;2023-05-03T10:57:38;4.47;;;1.10;;
60917;SDS011;46792;38.854;-9.384;2023-05-03T10:59:46;2.20;;;0.98;;
60917;SDS011;46792;38.854;-9.384;2023-05-03T11:01:54;3.38;;;0.95;;
60917;SDS011;46792;38.854;-9.384;2023-05-03T11:04:17;4.30;;;1.40;;
60917;SDS011;46792;38.854;-9.384;2023-05-03T11:06:46;7.88;;;1.23;;
60917;SDS011;46792;38.854;-9.384;2023-05-03T11:10:57;5.85;;;1.23;;
60917;SDS011;46792;38.854;-9.384;2023-05-03T11:13:18;6.30;;;1.20;;
60917;SDS011;46792;38.854;-9.384;2023-05-03T11:15:19;5.07;;;1.25;;
60917;SDS011;46792;38.854;-9.384;2023-05-03T11:17:20;5.82;;;1.23;;
60917;SDS011;46792;38.854;-9.384;2023-05-03T11:21:41;3.28;;;0.90;;
60917;SDS011;46792;38.854;-9.384;2023-05-03T11:23:43;7.30;;;1.17;;
60917;SDS011;46792;38.854;-9.384;2023-05-03T11:25:44;7.32;;;1.95;;
60917;SDS011;46792;38.854;-9.384;2023-05-03T11:27:45;3.95;;;1.10;;
60917;SDS011;46792;38.854;-9.384;2023-05-03T11:29:48;6.80;;;1.67;;
60917;SDS011;46792;38.854;-9.384;2023-05-03T11:31:50;5.53;;;1.05;;
60917;SDS011;46792;38.854;-9.384;2023-05-03T11:33:51;7.55;;;1.83;;
60917;SDS011;46792;38.854;-9.384;2023-05-03T11:35:54;5.15;;;1.55;;
60917;SDS011;46792;38.854;-9.384;2023-05-03T11:37:55;1.48;;;0.57;;
60917;SDS011;46792;38.854;-9.384;2023-05-03T11:39:56;6.70;;;1.05;;
60917;SDS011;46792;38.854;-9.384;2023-05-03T11:42:03;5.50;;;1.50;;
60917;SDS011;46792;38.854;-9.384;2023-05-03T11:44:05;6.05;;;1.00;;
60917;SDS011;46792;38.854;-9.384;2023-05-03T11:46:05;6.35;;;1.20;;
60917;SDS011;46792;38.854;-9.384;2023-05-03T11:48:10;2.20;;;0.70;;
60917;SDS011;46792;38.854;-9.384;2023-05-03T11:50:12;4.90;;;0.90;;
60917;SDS011;46792;38.854;-9.384;2023-05-03T11:52:31;1.77;;;0.80;;
60917;SDS011;46792;38.854;-9.384;2023-05-03T11:54:32;4.45;;;1.50;;
60917;SDS011;46792;38.854;-9.384;2023-05-03T11:56:33;12.20;;;1.25;;
60917;SDS011;46792;38.854;-9.384;2023-05-03T11:58:34;5.57;;;1.25;;
60917;SDS011;46792;38.854;-9.384;2023-05-03T12:00:35;3.13;;;1.20;;
60917;SDS011;46792;38.854;-9.384;2023-05-03T12:02:36;7.55;;;1.10;;
60917;SDS011;46792;38.854;-9.384;2023-05-03T12:04:37;2.42;;;1.00;;
60917;SDS011;46792;38.854;-9.384;2023-05-03T12:06:41;8.43;;;1.33;;
60917;SDS011;46792;38.854;-9.384;2023-05-03T12:08:47;5.68;;;1.40;;
60917;SDS011;46792;38.854;-9.384;2023-05-03T12:10:48;5.07;;;1.10;;
60917;SDS011;46792;38.854;-9.384;2023-05-03T12:12:50;8.25;;;1.60;;
60917;SDS011;46792;38.854;-9.384;2023-05-03T12:15:13;6.05;;;1.63;;
60917;SDS011;46792;38.854;-9.384;2023-05-03T12:17:13;6.45;;;1.38;;
60917;SDS011;46792;38.854;-9.384;2023-05-03T12:19:27;9.07;;;1.45;;
60917;SDS011;46792;38.854;-9.384;2023-05-03T12:21:42;8.00;;;1.33;;
60917;SDS011;46792;38.854;-9.384;2023-05-03T12:23:46;8.52;;;1.50;;
60917;SDS011;46792;38.854;-9.384;2023-05-03T12:25:51;13.45;;;1.70;;
60917;SDS011;46792;38.854;-9.384;2023-05-03T12:27:52;7.07;;;1.23;;
60917;SDS011;46792;38.854;-9.384;2023-05-03T12:29:54;8.98;;;1.60;;
60917;SDS011;46792;38.854;-9.384;2023-05-03T12:31:54;11.75;;;1.80;;
60917;SDS011;46792;38.854;-9.384;2023-05-03T12:33:56;9.40;;;1.55;;
60917;SDS011;46792;38.854;-9.384;2023-05-03T12:35:56;5.55;;;1.52;;
60917;SDS011;46792;38.854;-9.384;2023-05-03T12:37:57;12.10;;;2.53;;
60917;SDS011;46792;38.854;-9.384;2023-05-03T12:40:17;8.43;;;2.17;;
60917;SDS011;46792;38.854;-9.384;2023-05-03T12:42:41;4.07;;;1.50;;
60917;SDS011;46792;38.854;-9.384;2023-05-03T12:44:42;20.60;;;1.92;;
60917;SDS011;46792;38.854;-9.384;2023-05-03T12:46:43;6.43;;;1.10;;
60917;SDS011;46792;38.854;-9.384;2023-05-03T12:48:44;5.30;;;1.15;;
60917;SDS011;46792;38.854;-9.384;2023-05-03T12:50:47;5.10;;;1.40;;